sensor_id;sensor_type;location;lat;lon;timestamp;temperature;humidity
26745;DHT22;14342;50.960;13.880;2023-09-30T00:00:53;21.60;99.90
26745;DHT22;14342;50.960;13.880;2023-09-30T00:01:57;21.60;99.90
26745;DHT22;14342;50.960;13.880;2023-09-30T00:02:58;21.50;99.90
26745;DHT22;14342;50.960;13.880;2023-09-30T00:04:01;21.50;99.90
26745;DHT22;14342;50.960;13.880;2023-09-30T00:05:03;21.50;99.90
26745;DHT22;14342;50.960;13.880;2023-09-30T00:06:05;21.50;99.90
26745;DHT22;14342;50.960;13.880;2023-09-30T00:07:05;21.50;99.90
26745;DHT22;14342;50.960;13.880;2023-09-30T00:08:08;21.50;99.90
26745;DHT22;14342;50.960;13.880;2023-09-30T00:09:08;21.50;99.90
26745;DHT22;14342;50.960;13.880;2023-09-30T00:10:12;21.40;99.90
26745;DHT22;14342;50.960;13.880;2023-09-30T00:11:14;21.40;99.90
26745;DHT22;14342;50.960;13.880;2023-09-30T00:12:15;21.30;99.90
26745;DHT22;14342;50.960;13.880;2023-09-30T00:13:17;21.30;99.90
26745;DHT22;14342;50.960;13.880;2023-09-30T00:14:17;21.20;99.90
26745;DHT22;14342;50.960;13.880;2023-09-30T00:15:19;21.20;99.90
26745;DHT22;14342;50.960;13.880;2023-09-30T00:16:19;21.10;99.90
26745;DHT22;14342;50.960;13.880;2023-09-30T00:17:22;21.00;99.90
26745;DHT22;14342;50.960;13.880;2023-09-30T00:18:23;20.90;99.90
26745;DHT22;14342;50.960;13.880;2023-09-30T00:19:24;20.80;99.90
26745;DHT22;14342;50.960;13.880;2023-09-30T00:20:26;20.70;99.90
26745;DHT22;14342;50.960;13.880;2023-09-30T00:21:28;20.80;99.90
26745;DHT22;14342;50.960;13.880;2023-09-30T00:22:28;20.80;99.90
26745;DHT22;14342;50.960;13.880;2023-09-30T00:23:30;20.80;99.90
26745;DHT22;14342;50.960;13.880;2023-09-30T00:24:30;20.80;99.90
26745;DHT22;14342;50.960;13.880;2023-09-30T00:25:31;20.80;99.90
26745;DHT22;14342;50.960;13.880;2023-09-30T00:26:33;20.90;99.90
26745;DHT22;14342;50.960;13.880;2023-09-30T00:27:33;20.90;99.90
26745;DHT22;14342;50.960;13.880;2023-09-30T00:28:35;20.90;99.90
26745;DHT22;14342;50.960;13.880;2023-09-30T00:29:35;20.80;99.90
26745;DHT22;14342;50.960;13.880;2023-09-30T00:30:37;20.70;99.90
26745;DHT22;14342;50.960;13.880;2023-09-30T00:31:38;20.60;99.90
26745;DHT22;14342;50.960;13.880;2023-09-30T00:32:42;20.60;99.90
26745;DHT22;14342;50.960;13.880;2023-09-30T00:33:43;20.50;99.90
26745;DHT22;14342;50.960;13.880;2023-09-30T00:34:44;20.50;99.90
26745;DHT22;14342;50.960;13.880;2023-09-30T00:35:45;20.50;99.90
26745;DHT22;14342;50.960;13.880;2023-09-30T00:36:47;20.50;99.90
26745;DHT22;14342;50.960;13.880;2023-09-30T00:37:47;20.50;99.90
26745;DHT22;14342;50.960;13.880;2023-09-30T00:38:49;20.50;99.90
26745;DHT22;14342;50.960;13.880;2023-09-30T00:39:50;20.50;99.90
26745;DHT22;14342;50.960;13.880;2023-09-30T00:40:51;20.70;99.90
26745;DHT22;14342;50.960;13.880;2023-09-30T00:41:52;20.40;99.90
26745;DHT22;14342;50.960;13.880;2023-09-30T00:42:55;20.40;99.90
26745;DHT22;14342;50.960;13.880;2023-09-30T00:43:56;20.30;99.90
26745;DHT22;14342;50.960;13.880;2023-09-30T00:44:57;20.20;99.90
26745;DHT22;14342;50.960;13.880;2023-09-30T00:46:01;20.20;99.90
26745;DHT22;14342;50.960;13.880;2023-09-30T00:47:03;20.20;99.90
26745;DHT22;14342;50.960;13.880;2023-09-30T00:48:06;20.10;99.90
26745;DHT22;14342;50.960;13.880;2023-09-30T00:49:07;20.10;99.90
26745;DHT22;14342;50.960;13.880;2023-09-30T00:50:08;20.00;99.90
26745;DHT22;14342;50.960;13.880;2023-09-30T00:51:12;19.90;99.90
26745;DHT22;14342;50.960;13.880;2023-09-30T00:52:13;19.80;99.90
26745;DHT22;14342;50.960;13.880;2023-09-30T00:53:14;19.80;99.90
26745;DHT22;14342;50.960;13.880;2023-09-30T00:54:15;19.90;99.90
26745;DHT22;14342;50.960;13.880;2023-09-30T00:55:16;19.70;99.90
26745;DHT22;14342;50.960;13.880;2023-09-30T00:56:17;19.60;99.90
26745;DHT22;14342;50.960;13.880;2023-09-30T00:57:19;19.60;99.90
26745;DHT22;14342;50.960;13.880;2023-09-30T00:58:20;19.50;99.90
26745;DHT22;14342;50.960;13.880;2023-09-30T00:59:24;19.40;99.90
26745;DHT22;14342;50.960;13.880;2023-09-30T01:00:25;19.40;99.90
26745;DHT22;14342;50.960;13.880;2023-09-30T01:01:27;19.40;99.90
26745;DHT22;14342;50.960;13.880;2023-09-30T01:02:27;19.40;99.90
26745;DHT22;14342;50.960;13.880;2023-09-30T01:03:29;19.40;99.90
26745;DHT22;14342;50.960;13.880;2023-09-30T01:04:31;19.30;99.90
26745;DHT22;14342;50.960;13.880;2023-09-30T01:05:32;19.30;99.90
26745;DHT22;14342;50.960;13.880;2023-09-30T01:06:33;19.30;99.90
26745;DHT22;14342;50.960;13.880;2023-09-30T01:07:34;19.30;99.90
26745;DHT22;14342;50.960;13.880;2023-09-30T01:08:36;19.40;99.90
26745;DHT22;14342;50.960;13.880;2023-09-30T01:09:36;19.40;99.90
26745;DHT22;14342;50.960;13.880;2023-09-30T01:10:38;19.30;99.90
26745;DHT22;14342;50.960;13.880;2023-09-30T01:11:39;19.20;99.90
26745;DHT22;14342;50.960;13.880;2023-09-30T01:12:41;19.20;99.90
26745;DHT22;14342;50.960;13.880;2023-09-30T01:13:42;19.10;99.90
26745;DHT22;14342;50.960;13.880;2023-09-30T01:14:45;19.10;99.90
26745;DHT22;14342;50.960;13.880;2023-09-30T01:15:45;19.00;99.90
26745;DHT22;14342;50.960;13.880;2023-09-30T01:16:47;19.00;99.90
26745;DHT22;14342;50.960;13.880;2023-09-30T01:17:48;19.00;99.90
26745;DHT22;14342;50.960;13.880;2023-09-30T01:18:51;19.00;99.90
26745;DHT22;14342;50.960;13.880;2023-09-30T01:19:52;19.10;99.90
26745;DHT22;14342;50.960;13.880;2023-09-30T01:20:53;18.90;99.90
26745;DHT22;14342;50.960;13.880;2023-09-30T01:21:56;18.90;99.90
26745;DHT22;14342;50.960;13.880;2023-09-30T01:23:04;18.80;99.90
26745;DHT22;14342;50.960;13.880;2023-09-30T01:24:04;18.80;99.90
26745;DHT22;14342;50.960;13.880;2023-09-30T01:25:06;18.80;99.90
26745;DHT22;14342;50.960;13.880;2023-09-30T01:26:10;18.80;99.90
26745;DHT22;14342;50.960;13.880;2023-09-30T01:27:12;18.70;99.90
26745;DHT22;14342;50.960;13.880;2023-09-30T01:28:13;18.70;99.90
26745;DHT22;14342;50.960;13.880;2023-09-30T01:29:16;18.60;99.90
26745;DHT22;14342;50.960;13.880;2023-09-30T01:30:17;18.60;99.90
26745;DHT22;14342;50.960;13.880;2023-09-30T01:31:19;18.60;99.90
26745;DHT22;14342;50.960;13.880;2023-09-30T01:32:20;18.60;99.90
26745;DHT22;14342;50.960;13.880;2023-09-30T01:33:21;18.50;99.90
26745;DHT22;14342;50.960;13.880;2023-09-30T01:34:22;18.40;99.90
26745;DHT22;14342;50.960;13.880;2023-09-30T01:35:24;18.30;99.90
26745;DHT22;14342;50.960;13.880;2023-09-30T01:36:25;18.20;99.90
26745;DHT22;14342;50.960;13.880;2023-09-30T01:37:28;18.10;99.90
26745;DHT22;14342;50.960;13.880;2023-09-30T01:38:28;18.00;99.90
26745;DHT22;14342;50.960;13.880;2023-09-30T01:39:30;17.90;99.90
26745;DHT22;14342;50.960;13.880;2023-09-30T01:40:30;17.90;99.90
26745;DHT22;14342;50.960;13.880;2023-09-30T01:41:32;17.90;99.90
26745;DHT22;14342;50.960;13.880;2023-09-30T01:42:33;17.80;99.90
26745;DHT22;14342;50.960;13.880;2023-09-30T01:43:34;17.80;99.90
26745;DHT22;14342;50.960;13.880;2023-09-30T01:44:36;17.80;99.90
26745;DHT22;14342;50.960;13.880;2023-09-30T01:45:38;17.60;99.90
26745;DHT22;14342;50.960;13.880;2023-09-30T01:46:39;17.60;99.90
26745;DHT22;14342;50.960;13.880;2023-09-30T01:47:40;17.60;99.90
26745;DHT22;14342;50.960;13.880;2023-09-30T01:48:41;17.50;99.90
26745;DHT22;14342;50.960;13.880;2023-09-30T01:49:43;17.50;99.90
26745;DHT22;14342;50.960;13.880;2023-09-30T01:50:44;17.50;99.90
26745;DHT22;14342;50.960;13.880;2023-09-30T01:51:45;17.40;99.90
26745;DHT22;14342;50.960;13.880;2023-09-30T01:52:47;17.40;99.90
26745;DHT22;14342;50.960;13.880;2023-09-30T01:53:48;17.30;99.90
26745;DHT22;14342;50.960;13.880;2023-09-30T01:54:50;17.20;99.90
26745;DHT22;14342;50.960;13.880;2023-09-30T01:55:50;17.10;99.90
26745;DHT22;14342;50.960;13.880;2023-09-30T01:56:51;17.10;99.90
26745;DHT22;14342;50.960;13.880;2023-09-30T01:57:52;17.20;99.90
26745;DHT22;14342;50.960;13.880;2023-09-30T01:58:53;17.10;99.90
26745;DHT22;14342;50.960;13.880;2023-09-30T01:59:55;17.10;99.90
26745;DHT22;14342;50.960;13.880;2023-09-30T02:01:01;17.10;99.90
26745;DHT22;14342;50.960;13.880;2023-09-30T02:02:03;17.00;99.90
26745;DHT22;14342;50.960;13.880;2023-09-30T02:03:04;16.90;99.90
26745;DHT22;14342;50.960;13.880;2023-09-30T02:04:05;16.90;99.90
26745;DHT22;14342;50.960;13.880;2023-09-30T02:05:07;16.80;99.90
26745;DHT22;14342;50.960;13.880;2023-09-30T02:06:09;16.80;99.90
26745;DHT22;14342;50.960;13.880;2023-09-30T02:07:10;16.70;99.90
26745;DHT22;14342;50.960;13.880;2023-09-30T02:08:13;16.70;99.90
26745;DHT22;14342;50.960;13.880;2023-09-30T02:09:14;16.50;99.90
26745;DHT22;14342;50.960;13.880;2023-09-30T02:10:15;16.40;99.90
26745;DHT22;14342;50.960;13.880;2023-09-30T02:11:16;16.30;99.90
26745;DHT22;14342;50.960;13.880;2023-09-30T02:12:18;16.30;99.90
26745;DHT22;14342;50.960;13.880;2023-09-30T02:13:18;16.30;99.90
26745;DHT22;14342;50.960;13.880;2023-09-30T02:14:20;16.20;99.90
26745;DHT22;14342;50.960;13.880;2023-09-30T02:15:21;15.90;99.90
26745;DHT22;14342;50.960;13.880;2023-09-30T02:16:21;16.20;99.90
26745;DHT22;14342;50.960;13.880;2023-09-30T02:17:24;16.20;99.90
26745;DHT22;14342;50.960;13.880;2023-09-30T02:18:25;16.30;99.90
26745;DHT22;14342;50.960;13.880;2023-09-30T02:19:26;16.10;99.90
26745;DHT22;14342;50.960;13.880;2023-09-30T02:20:27;16.00;99.90
26745;DHT22;14342;50.960;13.880;2023-09-30T02:21:31;16.00;99.90
26745;DHT22;14342;50.960;13.880;2023-09-30T02:22:31;16.00;99.90
26745;DHT22;14342;50.960;13.880;2023-09-30T02:23:34;16.00;99.90
26745;DHT22;14342;50.960;13.880;2023-09-30T02:24:35;16.00;99.90
26745;DHT22;14342;50.960;13.880;2023-09-30T02:25:36;16.00;99.90
26745;DHT22;14342;50.960;13.880;2023-09-30T02:26:37;16.00;99.90
26745;DHT22;14342;50.960;13.880;2023-09-30T02:27:39;16.00;99.90
26745;DHT22;14342;50.960;13.880;2023-09-30T02:28:41;15.90;99.90
26745;DHT22;14342;50.960;13.880;2023-09-30T02:29:43;15.90;99.90
26745;DHT22;14342;50.960;13.880;2023-09-30T02:30:43;15.90;99.90
26745;DHT22;14342;50.960;13.880;2023-09-30T02:31:45;15.90;99.90
26745;DHT22;14342;50.960;13.880;2023-09-30T02:32:46;16.00;99.90
26745;DHT22;14342;50.960;13.880;2023-09-30T02:33:47;16.00;99.90
26745;DHT22;14342;50.960;13.880;2023-09-30T02:34:48;16.00;99.90
26745;DHT22;14342;50.960;13.880;2023-09-30T02:35:50;16.10;99.90
26745;DHT22;14342;50.960;13.880;2023-09-30T02:36:52;16.10;99.90
26745;DHT22;14342;50.960;13.880;2023-09-30T02:37:55;16.10;99.90
26745;DHT22;14342;50.960;13.880;2023-09-30T02:39:00;16.10;99.90
26745;DHT22;14342;50.960;13.880;2023-09-30T02:40:01;16.10;99.90
26745;DHT22;14342;50.960;13.880;2023-09-30T02:41:05;16.00;99.90
26745;DHT22;14342;50.960;13.880;2023-09-30T02:42:05;15.90;99.90
26745;DHT22;14342;50.960;13.880;2023-09-30T02:43:07;15.80;99.90
26745;DHT22;14342;50.960;13.880;2023-09-30T02:44:08;15.90;99.90
26745;DHT22;14342;50.960;13.880;2023-09-30T02:45:09;15.80;99.90
26745;DHT22;14342;50.960;13.880;2023-09-30T02:46:10;15.80;99.90
26745;DHT22;14342;50.960;13.880;2023-09-30T02:47:12;15.80;99.90
26745;DHT22;14342;50.960;13.880;2023-09-30T02:48:13;15.80;99.90
26745;DHT22;14342;50.960;13.880;2023-09-30T02:49:14;15.80;99.90
26745;DHT22;14342;50.960;13.880;2023-09-30T02:50:15;15.80;99.90
26745;DHT22;14342;50.960;13.880;2023-09-30T02:51:16;15.80;99.90
26745;DHT22;14342;50.960;13.880;2023-09-30T02:52:17;15.90;99.90
26745;DHT22;14342;50.960;13.880;2023-09-30T02:53:18;15.90;99.90
26745;DHT22;14342;50.960;13.880;2023-09-30T02:54:21;15.90;99.90
26745;DHT22;14342;50.960;13.880;2023-09-30T02:55:22;15.80;99.90
26745;DHT22;14342;50.960;13.880;2023-09-30T02:56:23;15.80;99.90
26745;DHT22;14342;50.960;13.880;2023-09-30T02:57:26;15.80;99.90
26745;DHT22;14342;50.960;13.880;2023-09-30T02:58:28;15.80;99.90
26745;DHT22;14342;50.960;13.880;2023-09-30T02:59:29;15.80;99.90
26745;DHT22;14342;50.960;13.880;2023-09-30T03:00:31;15.70;99.90
26745;DHT22;14342;50.960;13.880;2023-09-30T03:01:33;15.60;99.90
26745;DHT22;14342;50.960;13.880;2023-09-30T03:02:34;15.60;99.90
26745;DHT22;14342;50.960;13.880;2023-09-30T03:03:35;15.60;99.90
26745;DHT22;14342;50.960;13.880;2023-09-30T03:04:37;15.70;99.90
26745;DHT22;14342;50.960;13.880;2023-09-30T03:05:37;15.70;99.90
26745;DHT22;14342;50.960;13.880;2023-09-30T03:06:39;15.70;99.90
26745;DHT22;14342;50.960;13.880;2023-09-30T03:07:39;15.70;99.90
26745;DHT22;14342;50.960;13.880;2023-09-30T03:08:42;15.80;99.90
26745;DHT22;14342;50.960;13.880;2023-09-30T03:09:43;15.90;99.90
26745;DHT22;14342;50.960;13.880;2023-09-30T03:10:45;15.90;99.90
26745;DHT22;14342;50.960;13.880;2023-09-30T03:11:46;15.90;99.90
26745;DHT22;14342;50.960;13.880;2023-09-30T03:12:48;15.90;99.90
26745;DHT22;14342;50.960;13.880;2023-09-30T03:13:49;16.00;99.90
26745;DHT22;14342;50.960;13.880;2023-09-30T03:14:51;15.90;99.90
26745;DHT22;14342;50.960;13.880;2023-09-30T03:15:51;15.90;99.90
26745;DHT22;14342;50.960;13.880;2023-09-30T03:16:53;15.90;99.90
26745;DHT22;14342;50.960;13.880;2023-09-30T03:17:53;15.90;99.90
26745;DHT22;14342;50.960;13.880;2023-09-30T03:18:55;15.80;99.90
26745;DHT22;14342;50.960;13.880;2023-09-30T03:19:56;15.80;99.90
26745;DHT22;14342;50.960;13.880;2023-09-30T03:20:58;15.70;99.90
26745;DHT22;14342;50.960;13.880;2023-09-30T03:22:00;15.60;99.90
26745;DHT22;14342;50.960;13.880;2023-09-30T03:23:05;15.60;99.90
26745;DHT22;14342;50.960;13.880;2023-09-30T03:24:05;15.60;99.90
26745;DHT22;14342;50.960;13.880;2023-09-30T03:25:10;15.60;99.90
26745;DHT22;14342;50.960;13.880;2023-09-30T03:26:11;15.60;99.90
26745;DHT22;14342;50.960;13.880;2023-09-30T03:27:13;15.60;99.90
26745;DHT22;14342;50.960;13.880;2023-09-30T03:28:14;15.50;99.90
26745;DHT22;14342;50.960;13.880;2023-09-30T03:29:16;15.40;99.90
26745;DHT22;14342;50.960;13.880;2023-09-30T03:30:17;15.40;99.90
26745;DHT22;14342;50.960;13.880;2023-09-30T03:31:20;15.40;99.90
26745;DHT22;14342;50.960;13.880;2023-09-30T03:32:21;15.40;99.90
26745;DHT22;14342;50.960;13.880;2023-09-30T03:33:22;15.40;99.90
26745;DHT22;14342;50.960;13.880;2023-09-30T03:34:23;15.40;99.90
26745;DHT22;14342;50.960;13.880;2023-09-30T03:35:23;15.40;99.90
26745;DHT22;14342;50.960;13.880;2023-09-30T03:36:25;15.40;99.90
26745;DHT22;14342;50.960;13.880;2023-09-30T03:37:26;15.40;99.90
26745;DHT22;14342;50.960;13.880;2023-09-30T03:38:28;15.40;99.90
26745;DHT22;14342;50.960;13.880;2023-09-30T03:39:29;15.40;99.90
26745;DHT22;14342;50.960;13.880;2023-09-30T03:40:34;15.30;99.90
26745;DHT22;14342;50.960;13.880;2023-09-30T03:41:34;15.30;99.90
26745;DHT22;14342;50.960;13.880;2023-09-30T03:42:37;15.30;99.90
26745;DHT22;14342;50.960;13.880;2023-09-30T03:43:39;15.30;99.90
26745;DHT22;14342;50.960;13.880;2023-09-30T03:44:41;15.20;99.90
26745;DHT22;14342;50.960;13.880;2023-09-30T03:45:42;15.20;99.90
26745;DHT22;14342;50.960;13.880;2023-09-30T03:46:45;15.10;99.90
26745;DHT22;14342;50.960;13.880;2023-09-30T03:47:46;15.10;99.90
26745;DHT22;14342;50.960;13.880;2023-09-30T03:48:49;15.10;99.90
26745;DHT22;14342;50.960;13.880;2023-09-30T03:49:50;15.10;99.90
26745;DHT22;14342;50.960;13.880;2023-09-30T03:50:51;15.00;99.90
26745;DHT22;14342;50.960;13.880;2023-09-30T03:51:53;15.00;99.90
26745;DHT22;14342;50.960;13.880;2023-09-30T03:53:00;15.00;99.90
26745;DHT22;14342;50.960;13.880;2023-09-30T03:54:01;15.00;99.90
26745;DHT22;14342;50.960;13.880;2023-09-30T03:55:03;15.00;99.90
26745;DHT22;14342;50.960;13.880;2023-09-30T03:56:06;15.00;99.90
26745;DHT22;14342;50.960;13.880;2023-09-30T03:57:08;15.00;99.90
26745;DHT22;14342;50.960;13.880;2023-09-30T03:58:08;15.00;99.90
26745;DHT22;14342;50.960;13.880;2023-09-30T03:59:10;15.10;99.90
26745;DHT22;14342;50.960;13.880;2023-09-30T04:00:10;15.10;99.90
26745;DHT22;14342;50.960;13.880;2023-09-30T04:01:16;15.10;99.90
26745;DHT22;14342;50.960;13.880;2023-09-30T04:02:17;15.10;99.90
26745;DHT22;14342;50.960;13.880;2023-09-30T04:03:19;15.20;99.90
26745;DHT22;14342;50.960;13.880;2023-09-30T04:04:20;15.30;99.90
26745;DHT22;14342;50.960;13.880;2023-09-30T04:05:22;15.30;99.90
26745;DHT22;14342;50.960;13.880;2023-09-30T04:06:27;15.20;99.90
26745;DHT22;14342;50.960;13.880;2023-09-30T04:07:29;15.20;99.90
26745;DHT22;14342;50.960;13.880;2023-09-30T04:08:30;15.30;99.90
26745;DHT22;14342;50.960;13.880;2023-09-30T04:09:33;15.30;99.90
26745;DHT22;14342;50.960;13.880;2023-09-30T04:10:34;15.20;99.90
26745;DHT22;14342;50.960;13.880;2023-09-30T04:11:37;15.20;99.90
26745;DHT22;14342;50.960;13.880;2023-09-30T04:12:38;15.10;99.90
26745;DHT22;14342;50.960;13.880;2023-09-30T04:13:38;15.00;99.90
26745;DHT22;14342;50.960;13.880;2023-09-30T04:14:40;15.00;99.90
26745;DHT22;14342;50.960;13.880;2023-09-30T04:15:41;15.00;99.90
26745;DHT22;14342;50.960;13.880;2023-09-30T04:16:42;14.90;99.90
26745;DHT22;14342;50.960;13.880;2023-09-30T04:17:43;14.90;99.90
26745;DHT22;14342;50.960;13.880;2023-09-30T04:18:44;14.90;99.90
26745;DHT22;14342;50.960;13.880;2023-09-30T04:19:46;14.90;99.90
26745;DHT22;14342;50.960;13.880;2023-09-30T04:20:51;14.90;99.90
26745;DHT22;14342;50.960;13.880;2023-09-30T04:21:52;14.90;99.90
26745;DHT22;14342;50.960;13.880;2023-09-30T04:22:53;14.90;99.90
26745;DHT22;14342;50.960;13.880;2023-09-30T04:23:57;14.90;99.90
26745;DHT22;14342;50.960;13.880;2023-09-30T04:24:59;15.00;99.90
26745;DHT22;14342;50.960;13.880;2023-09-30T04:25:59;14.90;99.90
26745;DHT22;14342;50.960;13.880;2023-09-30T04:27:01;14.80;99.90
26745;DHT22;14342;50.960;13.880;2023-09-30T04:28:05;14.80;99.90
26745;DHT22;14342;50.960;13.880;2023-09-30T04:29:06;14.80;99.90
26745;DHT22;14342;50.960;13.880;2023-09-30T04:30:10;14.80;99.90
26745;DHT22;14342;50.960;13.880;2023-09-30T04:31:11;14.80;99.90
26745;DHT22;14342;50.960;13.880;2023-09-30T04:32:14;14.80;99.90
26745;DHT22;14342;50.960;13.880;2023-09-30T04:33:14;14.80;99.90
26745;DHT22;14342;50.960;13.880;2023-09-30T04:34:15;14.80;99.90
26745;DHT22;14342;50.960;13.880;2023-09-30T04:35:16;14.40;99.90
26745;DHT22;14342;50.960;13.880;2023-09-30T04:36:18;14.70;99.90
26745;DHT22;14342;50.960;13.880;2023-09-30T04:37:20;14.70;99.90
26745;DHT22;14342;50.960;13.880;2023-09-30T04:38:20;14.80;99.90
26745;DHT22;14342;50.960;13.880;2023-09-30T04:39:21;14.90;99.90
26745;DHT22;14342;50.960;13.880;2023-09-30T04:40:22;14.80;99.90
26745;DHT22;14342;50.960;13.880;2023-09-30T04:41:23;14.80;99.90
26745;DHT22;14342;50.960;13.880;2023-09-30T04:42:27;14.80;99.90
26745;DHT22;14342;50.960;13.880;2023-09-30T04:43:27;14.80;99.90
26745;DHT22;14342;50.960;13.880;2023-09-30T04:44:29;14.70;99.90
26745;DHT22;14342;50.960;13.880;2023-09-30T04:45:30;14.70;99.90
26745;DHT22;14342;50.960;13.880;2023-09-30T04:46:33;14.80;99.90
26745;DHT22;14342;50.960;13.880;2023-09-30T04:47:34;14.80;99.90
26745;DHT22;14342;50.960;13.880;2023-09-30T04:48:35;14.70;99.90
26745;DHT22;14342;50.960;13.880;2023-09-30T04:49:36;14.70;99.90
26745;DHT22;14342;50.960;13.880;2023-09-30T04:50:38;14.60;99.90
26745;DHT22;14342;50.960;13.880;2023-09-30T04:51:39;14.60;99.90
26745;DHT22;14342;50.960;13.880;2023-09-30T04:52:40;14.50;99.90
26745;DHT22;14342;50.960;13.880;2023-09-30T04:53:41;14.60;99.90
26745;DHT22;14342;50.960;13.880;2023-09-30T04:54:43;14.50;99.90
26745;DHT22;14342;50.960;13.880;2023-09-30T04:55:45;14.60;99.90
26745;DHT22;14342;50.960;13.880;2023-09-30T04:56:48;14.40;99.90
26745;DHT22;14342;50.960;13.880;2023-09-30T04:57:50;14.30;99.90
26745;DHT22;14342;50.960;13.880;2023-09-30T04:58:51;14.30;99.90
26745;DHT22;14342;50.960;13.880;2023-09-30T04:59:52;14.20;99.90
26745;DHT22;14342;50.960;13.880;2023-09-30T05:00:53;14.20;99.90
26745;DHT22;14342;50.960;13.880;2023-09-30T05:01:55;14.10;99.90
26745;DHT22;14342;50.960;13.880;2023-09-30T05:02:55;14.30;99.90
26745;DHT22;14342;50.960;13.880;2023-09-30T05:03:59;14.10;99.90
26745;DHT22;14342;50.960;13.880;2023-09-30T05:04:59;14.20;99.90
26745;DHT22;14342;50.960;13.880;2023-09-30T05:06:01;14.20;99.90
26745;DHT22;14342;50.960;13.880;2023-09-30T05:07:03;14.20;99.90
26745;DHT22;14342;50.960;13.880;2023-09-30T05:08:04;14.10;99.90
26745;DHT22;14342;50.960;13.880;2023-09-30T05:09:06;14.00;99.90
26745;DHT22;14342;50.960;13.880;2023-09-30T05:10:09;14.00;99.90
26745;DHT22;14342;50.960;13.880;2023-09-30T05:11:13;14.00;99.90
26745;DHT22;14342;50.960;13.880;2023-09-30T05:12:14;14.10;99.90
26745;DHT22;14342;50.960;13.880;2023-09-30T05:13:18;13.90;99.90
26745;DHT22;14342;50.960;13.880;2023-09-30T05:14:18;13.90;99.90
26745;DHT22;14342;50.960;13.880;2023-09-30T05:15:21;13.90;99.90
26745;DHT22;14342;50.960;13.880;2023-09-30T05:16:22;13.90;99.90
26745;DHT22;14342;50.960;13.880;2023-09-30T05:17:23;13.90;99.90
26745;DHT22;14342;50.960;13.880;2023-09-30T05:18:24;13.90;99.90
26745;DHT22;14342;50.960;13.880;2023-09-30T05:19:25;13.90;99.90
26745;DHT22;14342;50.960;13.880;2023-09-30T05:20:26;13.90;99.90
26745;DHT22;14342;50.960;13.880;2023-09-30T05:21:27;13.90;99.90
26745;DHT22;14342;50.960;13.880;2023-09-30T05:22:29;13.90;99.90
26745;DHT22;14342;50.960;13.880;2023-09-30T05:23:30;13.90;99.90
26745;DHT22;14342;50.960;13.880;2023-09-30T05:24:32;13.90;99.90
26745;DHT22;14342;50.960;13.880;2023-09-30T05:25:35;13.90;99.90
26745;DHT22;14342;50.960;13.880;2023-09-30T05:26:36;13.90;99.90
26745;DHT22;14342;50.960;13.880;2023-09-30T05:27:37;13.90;99.90
26745;DHT22;14342;50.960;13.880;2023-09-30T05:28:40;13.90;99.90
26745;DHT22;14342;50.960;13.880;2023-09-30T05:29:42;13.90;99.90
26745;DHT22;14342;50.960;13.880;2023-09-30T05:30:43;13.90;99.90
26745;DHT22;14342;50.960;13.880;2023-09-30T05:31:46;13.90;99.90
26745;DHT22;14342;50.960;13.880;2023-09-30T05:32:46;13.90;99.90
26745;DHT22;14342;50.960;13.880;2023-09-30T05:33:48;13.90;99.90
26745;DHT22;14342;50.960;13.880;2023-09-30T05:34:48;13.90;99.90
26745;DHT22;14342;50.960;13.880;2023-09-30T05:35:50;13.90;99.90
26745;DHT22;14342;50.960;13.880;2023-09-30T05:36:52;14.00;99.90
26745;DHT22;14342;50.960;13.880;2023-09-30T05:37:53;14.10;99.90
26745;DHT22;14342;50.960;13.880;2023-09-30T05:38:54;14.10;99.90
26745;DHT22;14342;50.960;13.880;2023-09-30T05:39:56;14.00;99.90
26745;DHT22;14342;50.960;13.880;2023-09-30T05:40:57;14.10;99.90
26745;DHT22;14342;50.960;13.880;2023-09-30T05:41:59;14.10;99.90
26745;DHT22;14342;50.960;13.880;2023-09-30T05:43:00;14.10;99.90
26745;DHT22;14342;50.960;13.880;2023-09-30T05:44:03;14.20;99.90
26745;DHT22;14342;50.960;13.880;2023-09-30T05:45:04;14.30;99.90
26745;DHT22;14342;50.960;13.880;2023-09-30T05:46:06;14.40;99.90
26745;DHT22;14342;50.960;13.880;2023-09-30T05:47:08;14.40;99.90
26745;DHT22;14342;50.960;13.880;2023-09-30T05:48:09;14.50;99.90
26745;DHT22;14342;50.960;13.880;2023-09-30T05:49:10;14.60;99.90
26745;DHT22;14342;50.960;13.880;2023-09-30T05:50:11;14.60;99.90
26745;DHT22;14342;50.960;13.880;2023-09-30T05:51:16;14.70;99.90
26745;DHT22;14342;50.960;13.880;2023-09-30T05:52:16;14.70;99.90
26745;DHT22;14342;50.960;13.880;2023-09-30T05:53:18;14.70;99.90
26745;DHT22;14342;50.960;13.880;2023-09-30T05:54:19;14.60;99.90
26745;DHT22;14342;50.960;13.880;2023-09-30T05:55:20;14.60;99.90
26745;DHT22;14342;50.960;13.880;2023-09-30T05:56:22;14.60;99.90
26745;DHT22;14342;50.960;13.880;2023-09-30T05:57:23;14.70;99.90
26745;DHT22;14342;50.960;13.880;2023-09-30T05:58:24;14.70;99.90
26745;DHT22;14342;50.960;13.880;2023-09-30T05:59:28;14.80;99.90
26745;DHT22;14342;50.960;13.880;2023-09-30T06:00:30;14.80;99.90
26745;DHT22;14342;50.960;13.880;2023-09-30T06:01:34;14.90;99.90
26745;DHT22;14342;50.960;13.880;2023-09-30T06:02:36;14.90;99.90
26745;DHT22;14342;50.960;13.880;2023-09-30T06:03:38;14.90;99.90
26745;DHT22;14342;50.960;13.880;2023-09-30T06:04:40;15.00;99.90
26745;DHT22;14342;50.960;13.880;2023-09-30T06:05:41;15.00;99.90
26745;DHT22;14342;50.960;13.880;2023-09-30T06:06:42;15.20;99.90
26745;DHT22;14342;50.960;13.880;2023-09-30T06:07:44;15.20;99.90
26745;DHT22;14342;50.960;13.880;2023-09-30T06:08:45;15.30;99.90
26745;DHT22;14342;50.960;13.880;2023-09-30T06:09:47;15.30;99.90
26745;DHT22;14342;50.960;13.880;2023-09-30T06:10:48;15.30;99.90
26745;DHT22;14342;50.960;13.880;2023-09-30T06:11:50;15.30;99.90
26745;DHT22;14342;50.960;13.880;2023-09-30T06:12:51;15.30;99.90
26745;DHT22;14342;50.960;13.880;2023-09-30T06:13:55;15.40;99.90
26745;DHT22;14342;50.960;13.880;2023-09-30T06:15:00;15.30;99.90
26745;DHT22;14342;50.960;13.880;2023-09-30T06:16:01;15.30;99.90
26745;DHT22;14342;50.960;13.880;2023-09-30T06:17:03;15.30;99.90
26745;DHT22;14342;50.960;13.880;2023-09-30T06:18:04;15.30;99.90
26745;DHT22;14342;50.960;13.880;2023-09-30T06:19:06;15.40;99.90
26745;DHT22;14342;50.960;13.880;2023-09-30T06:20:07;15.50;99.90
26745;DHT22;14342;50.960;13.880;2023-09-30T06:21:09;15.40;99.90
26745;DHT22;14342;50.960;13.880;2023-09-30T06:22:11;15.40;99.90
26745;DHT22;14342;50.960;13.880;2023-09-30T06:23:11;15.20;99.90